.
WxDataArchive / Data Records for 2008-07-15
2008-07-14 July 2008 2008-07-16

Data Records for Tuesday, 15 July 2008

Time	Temp	Chill	HIndex	Humid	Dewpt	 Wind 	HiWind	WindDir	Rain 	Barom 
-----	----	-----	------	-----	-----	------	------	-------	-----	----- 
00:00	60.5	60.5	60.5	83	55.3	0	0	---	0.00	29.956 
00:05	60.5	60.5	60.5	83	55.3	0	0	---	0.00	29.956 
00:10	60.4	60.4	60.4	83	55.2	0	0	---	0.00	29.957 
00:15	60.2	60.2	60.2	84	55.3	0	0	---	0.00	29.956 
00:20	60.1	60.1	60.1	84	55.2	0	0	---	0.00	29.957 
00:25	59.9	59.9	59.9	85	55.4	0	0	---	0.00	29.957 
00:30	59.8	59.8	59.8	85	55.3	0	0	---	0.00	29.957 
00:35	59.8	59.8	59.8	85	55.3	0	0	---	0.00	29.958 
00:40	59.6	59.6	59.6	85	55.1	0	0	---	0.00	29.958 
00:45	59.6	59.6	59.6	86	55.4	0	0	---	0.00	29.958 
00:50	59.5	59.5	59.5	86	55.3	0	0	---	0.00	29.958 
00:55	59.3	59.3	59.3	86	55.1	0	0	---	0.00	29.959 
01:00	59.3	59.3	59.3	86	55.1	0	0	---	0.00	29.960 
01:05	59.2	59.2	59.2	87	55.3	0	0	---	0.00	29.960 
01:10	59.2	59.2	59.2	87	55.3	0	0	---	0.00	29.958 
01:15	59.0	59.0	59.0	87	55.1	0	0	---	0.00	29.959 
01:20	58.9	58.9	58.9	87	55.0	0	0	---	0.00	29.960 
01:25	58.9	58.9	58.9	87	55.0	0	0	---	0.00	29.960 
01:30	58.7	58.7	58.7	88	55.2	0	0	---	0.00	29.961 
01:35	58.7	58.7	58.7	88	55.2	0	0	---	0.00	29.961 
01:40	58.6	58.6	58.6	88	55.1	0	0	---	0.00	29.960 
01:45	58.6	58.6	58.6	88	55.1	0	0	---	0.00	29.961 
01:50	58.4	58.4	58.4	88	54.9	0	0	---	0.00	29.963 
01:55	58.3	58.3	58.3	88	54.8	0	0	---	0.00	29.963 
02:00	58.3	58.3	58.3	88	54.8	0	0	---	0.00	29.964 
02:05	58.3	58.3	58.3	89	55.1	0	0	---	0.00	29.965 
02:10	58.1	58.1	58.1	89	54.9	0	0	---	0.00	29.966 
02:15	58.1	58.1	58.1	89	54.9	0	0	---	0.00	29.968 
02:20	58.0	58.0	58.0	89	54.8	0	0	---	0.00	29.970 
02:25	58.0	58.0	58.0	89	54.8	0	0	---	0.00	29.971 
02:30	57.8	57.8	57.8	89	54.6	0	0	---	0.00	29.970 
02:35	57.6	57.6	57.6	89	54.4	0	0	---	0.00	29.971 
02:40	57.6	57.6	57.6	89	54.4	0	0	---	0.00	29.970 
02:45	57.5	57.5	57.5	89	54.3	0	0	---	0.00	29.971 
02:50	57.5	57.5	57.5	90	54.6	0	0	---	0.00	29.972 
02:55	57.5	57.5	57.5	90	54.6	0	0	---	0.00	29.972 
03:00	57.3	57.3	57.3	90	54.4	0	0	---	0.00	29.974 
03:05	57.3	57.3	57.3	91	54.7	0	0	---	0.00	29.973 
03:10	57.2	57.2	57.2	91	54.6	0	0	---	0.00	29.974 
03:15	57.2	57.2	57.2	91	54.6	0	0	---	0.00	29.974 
03:20	57.2	57.2	57.2	91	54.6	0	0	---	0.00	29.974 
03:25	57.2	57.2	57.2	91	54.6	0	0	---	0.00	29.973 
03:30	57.2	57.2	57.2	92	54.9	0	0	---	0.00	29.974 
03:35	57.0	57.0	57.0	92	54.7	0	0	---	0.00	29.974 
03:40	56.9	56.9	56.9	92	54.6	0	0	---	0.00	29.973 
03:45	56.9	56.9	56.9	92	54.6	0	0	---	0.00	29.973 
03:50	56.9	56.9	56.9	92	54.6	0	0	---	0.00	29.975 
03:55	56.7	56.7	56.7	92	54.4	0	0	---	0.00	29.974 
04:00	56.7	56.7	56.7	92	54.4	0	0	---	0.00	29.976 
04:05	56.6	56.6	56.6	92	54.3	0	0	---	0.00	29.979 
04:10	56.6	56.6	56.6	92	54.3	0	0	---	0.00	29.977 
04:15	56.6	56.6	56.6	92	54.3	0	0	---	0.00	29.978 
04:20	56.5	56.5	56.5	92	54.2	0	0	---	0.00	29.980 
04:25	56.5	56.5	56.5	92	54.2	0	0	---	0.00	29.985 
04:30	56.3	56.3	56.3	92	54.0	0	0	---	0.00	29.987 
04:35	56.3	56.3	56.3	92	54.0	0	0	---	0.00	29.989 
04:40	56.2	56.2	56.2	92	53.9	0	0	---	0.00	29.990 
04:45	56.2	56.2	56.2	92	53.9	0	0	---	0.00	29.990 
04:50	56.2	56.2	56.2	93	54.2	0	0	---	0.00	29.991 
04:55	56.3	56.3	56.3	93	54.3	0	0	---	0.00	29.991 
05:00	56.2	56.2	56.2	93	54.2	0	0	---	0.00	29.991 
05:05	56.2	56.2	56.2	93	54.2	0	0	---	0.00	29.991 
05:10	56.2	56.2	56.2	93	54.2	0	0	---	0.00	29.991 
05:15	56.3	56.3	56.3	93	54.3	0	0	---	0.00	29.990 
05:20	56.2	56.2	56.2	93	54.2	0	0	---	0.00	29.990 
05:25	56.2	56.2	56.2	94	54.5	0	0	---	0.00	29.990 
05:30	56.2	56.2	56.2	94	54.5	0	0	---	0.00	29.990 
05:35	56.3	56.3	56.3	94	54.6	0	0	---	0.00	29.991 
05:40	56.3	56.3	56.3	94	54.6	0	0	---	0.00	29.991 
05:45	56.3	56.3	56.3	94	54.6	0	0	---	0.00	29.991 
05:50	56.5	56.5	56.5	94	54.8	0	0	---	0.00	29.990 
05:55	56.5	56.5	56.5	94	54.8	0	0	---	0.00	29.991 
06:00	56.6	56.6	56.6	94	54.9	0	0	---	0.00	29.992 
06:05	56.9	56.9	56.9	95	55.5	0	0	---	0.00	29.994 
06:10	57.0	57.0	57.0	95	55.6	0	0	---	0.00	29.997 
06:15	57.3	57.3	57.3	95	55.9	0	0	---	0.00	29.998 
06:20	57.5	57.5	57.5	95	56.1	0	0	---	0.00	29.999 
06:25	58.0	58.0	58.0	95	56.6	0	0	---	0.00	30.001 
06:30	58.9	58.9	58.9	95	57.5	0	1	315	0.00	30.001 
06:35	59.9	59.9	59.9	91	57.3	0	1	315	0.00	29.999 
06:40	61.2	61.2	61.2	85	56.6	0	1	315	0.00	29.999 
06:45	62.4	62.4	62.4	81	56.5	0	1	315	0.00	30.001 
06:50	63.5	63.5	63.5	77	56.2	0	1	315	0.00	30.001 
06:55	64.5	64.5	64.5	73	55.6	1	2	315	0.00	30.000 
07:00	65.3	65.3	65.3	73	56.4	0	1	315	0.00	30.000 
07:05	66.3	66.3	66.3	68	55.4	0	1	315	0.00	30.004 
07:10	67.3	67.3	67.3	66	55.5	0	1	315	0.00	30.003 
07:15	67.9	67.9	67.9	63	54.8	0	3	315	0.00	30.004 
07:20	68.6	68.6	68.6	64	55.9	0	2	315	0.00	30.003 
07:25	69.3	69.3	69.3	62	55.7	0	3	0	0.00	30.004 
07:30	69.9	69.9	69.9	64	57.2	0	2	0	0.00	30.004 
07:35	70.4	70.4	70.4	60	55.8	0	1	0	0.00	30.011 
07:40	71.3	71.3	71.3	58	55.7	0	2	0	0.00	30.012 
07:45	72.3	72.3	72.3	60	57.6	0	1	0	0.00	30.012 
07:50	72.7	72.7	72.7	58	57.1	0	2	0	0.00	30.012 
07:55	73.2	73.2	73.2	59	58.0	0	1	315	0.00	30.012 
08:00	73.7	73.7	73.7	57	57.5	0	2	315	0.00	30.012 
08:05	74.2	74.2	74.2	59	58.9	0	2	338	0.00	30.017 
08:10	74.6	74.6	74.6	57	58.3	1	3	22	0.00	30.017 
08:15	75.1	75.1	77.5	57	58.8	0	2	0	0.00	30.017 
08:20	75.4	75.4	77.7	55	58.1	1	3	0	0.00	30.017 
08:25	75.6	75.6	77.8	56	58.8	0	1	338	0.00	30.016 
08:30	75.6	75.6	77.8	57	59.3	1	4	248	0.00	30.016 
08:35	76.0	76.0	78.1	56	59.2	1	4	90	0.00	30.016 
08:40	76.5	76.5	78.4	55	59.1	0	2	90	0.00	30.016 
08:45	76.7	76.7	78.5	58	60.8	0	2	90	0.00	30.014 
08:50	77.0	77.0	78.7	57	60.6	0	1	90	0.00	30.013 
08:55	77.4	77.4	79.0	54	59.4	1	3	90	0.00	30.014 
09:00	78.1	78.1	79.6	57	61.6	0	2	90	0.00	30.014 
09:05	78.5	78.5	79.8	54	60.4	0	2	68	0.00	30.016 
09:10	78.8	78.8	80.1	54	60.7	1	3	68	0.00	30.016 
09:15	78.6	78.6	79.9	54	60.5	1	2	68	0.00	30.017 
09:20	78.5	78.5	79.9	56	61.5	0	2	68	0.00	30.017 
09:25	78.6	78.6	79.9	54	60.5	0	2	68	0.00	30.020 
09:30	79.2	79.2	80.4	54	61.1	0	2	68	0.00	30.022 
09:35	79.9	79.9	81.0	53	61.2	0	2	68	0.00	30.022 
09:40	80.1	80.1	81.2	53	61.4	0	2	68	0.00	30.022 
09:45	80.1	80.1	81.3	54	61.9	1	4	90	0.00	30.023 
09:50	80.3	80.3	81.5	54	62.1	0	2	90	0.00	30.025 
09:55	80.9	80.9	82.0	53	62.1	0	3	90	0.00	30.026 
10:00	81.2	81.2	82.6	55	63.5	1	3	90	0.00	30.027 
10:05	81.2	81.2	82.2	52	61.9	1	2	90	0.00	30.029 
10:10	81.6	81.6	82.8	53	62.8	0	3	90	0.00	30.030 
10:15	82.2	82.2	82.8	49	61.1	1	3	90	0.00	30.029 
10:20	82.2	82.2	82.7	48	60.5	0	2	90	0.00	30.030 
10:25	82.4	82.4	82.7	47	60.1	0	4	248	0.00	30.028 
10:30	82.8	82.8	83.5	49	61.7	0	3	248	0.00	30.028 
10:35	83.0	83.0	83.7	49	61.8	1	3	248	0.00	30.026 
10:40	83.2	83.2	83.8	48	61.4	0	2	90	0.00	30.024 
10:45	83.2	83.2	84.1	50	62.6	0	2	112	0.00	30.026 
10:50	83.2	83.2	84.1	50	62.6	1	3	112	0.00	30.026 
10:55	83.6	83.6	84.6	50	63.0	1	3	112	0.00	30.027 
11:00	84.0	84.0	84.3	46	61.0	1	3	112	0.00	30.025 
11:05	83.6	83.6	83.9	46	60.6	1	3	248	0.00	30.027 
11:10	83.6	83.6	84.1	47	61.2	0	2	248	0.00	30.027 
11:15	83.8	83.8	84.3	47	61.4	1	3	248	0.00	30.025 
11:20	84.0	84.0	84.3	46	61.0	0	3	270	0.00	30.026 
11:25	84.3	84.3	84.7	46	61.2	1	4	270	0.00	30.024 
11:30	84.7	84.7	85.4	47	62.2	1	4	135	0.00	30.024 
11:35	84.9	84.9	85.2	45	61.2	1	4	135	0.00	30.025 
11:40	84.5	84.5	85.6	49	63.2	1	3	248	0.00	30.025 
11:45	84.9	84.9	85.0	44	60.5	0	1	270	0.00	30.025 
11:50	85.3	85.3	85.2	43	60.2	1	4	270	0.00	30.025 
11:55	85.1	85.1	85.9	47	62.6	1	3	270	0.00	30.023 
12:00	85.5	85.5	86.9	49	64.1	0	3	270	0.00	30.023 
12:05	85.3	85.3	85.5	44	60.9	1	3	270	0.00	30.027 
12:10	85.3	85.3	85.9	46	62.1	0	2	270	0.00	30.026 
12:15	85.5	85.5	85.5	43	60.4	0	2	90	0.00	30.027 
12:20	85.5	85.5	85.7	44	61.1	1	5	270	0.00	30.027 
12:25	85.9	85.9	86.2	44	61.4	0	2	270	0.00	30.026 
12:30	86.3	86.3	86.7	44	61.8	0	2	270	0.00	30.025 
12:35	86.3	86.3	86.7	44	61.8	1	2	270	0.00	30.023 
12:40	86.3	86.3	87.0	45	62.4	1	2	338	0.00	30.020 
12:45	86.3	86.3	86.0	41	59.8	1	4	270	0.00	30.021 
12:50	86.1	86.1	85.8	41	59.6	1	3	270	0.00	30.019 
12:55	85.9	85.9	86.9	47	63.3	1	4	112	0.00	30.015 
13:00	85.9	85.9	86.0	43	60.8	1	4	248	0.00	30.016 
13:05	86.1	86.1	86.0	42	60.3	1	4	22	0.00	30.014 
13:10	86.1	86.1	86.5	44	61.6	1	4	292	0.00	30.014 
13:15	86.3	86.3	85.8	40	59.1	1	3	270	0.00	30.014 
13:20	86.5	86.5	86.5	42	60.6	1	3	270	0.00	30.012 
13:25	86.7	86.7	87.0	43	61.5	1	3	248	0.00	30.009 
13:30	87.4	87.4	88.5	45	63.4	1	4	270	0.00	30.010 
13:35	87.4	87.4	87.9	43	62.1	1	4	270	0.00	30.010 
13:40	87.6	87.6	88.2	43	62.3	0	4	270	0.00	30.006 
13:45	87.6	87.6	88.5	44	63.0	1	4	270	0.00	30.007 
13:50	87.4	87.4	87.1	40	60.1	2	5	270	0.00	30.005 
13:55	87.2	87.2	87.6	43	61.9	1	5	248	0.00	30.007 
14:00	87.6	87.6	88.2	43	62.3	1	4	270	0.00	30.006 
14:05	87.8	87.8	87.6	40	60.4	1	6	112	0.00	30.009 
14:10	87.8	87.8	88.2	42	61.8	1	3	315	0.00	30.007 
14:15	87.6	87.6	87.6	41	60.9	2	5	270	0.00	30.005 
14:20	87.4	87.4	86.9	39	59.4	2	5	270	0.00	30.006 
14:25	87.6	87.6	88.2	43	62.3	1	5	270	0.00	30.005 
14:30	87.8	87.8	87.9	41	61.1	2	5	292	0.00	30.003 
14:35	87.8	87.8	87.4	39	59.7	1	3	270	0.00	30.002 
14:40	88.0	88.0	88.2	41	61.3	1	2	292	0.00	30.000 
14:45	88.6	88.6	88.7	40	61.1	1	3	270	0.00	30.000 
14:50	88.8	88.8	88.4	38	59.9	1	3	248	0.00	30.002 
14:55	88.6	88.6	88.2	38	59.7	1	4	270	0.00	29.999 
15:00	88.6	88.6	88.4	39	60.4	1	4	225	0.00	29.999 
15:05	88.8	88.8	88.4	38	59.9	1	3	225	0.00	29.999 
15:10	89.0	89.0	88.7	38	60.1	1	2	225	0.00	29.996 
15:15	88.6	88.6	88.4	39	60.4	2	5	270	0.00	29.996 
15:20	88.6	88.6	89.9	44	63.9	1	3	90	0.00	29.997 
15:25	88.6	88.6	88.4	39	60.4	1	4	270	0.00	29.996 
15:30	88.6	88.6	88.2	38	59.7	1	3	270	0.00	29.996 
15:35	88.4	88.4	87.6	37	58.8	1	3	292	0.00	29.998 
15:40	88.2	88.2	87.9	39	60.1	2	4	270	0.00	29.998 
15:45	88.0	88.0	87.1	37	58.4	1	4	248	0.00	29.998 
15:50	88.0	88.0	87.4	38	59.2	1	3	248	0.00	29.997 
15:55	88.2	88.2	88.4	41	61.5	1	3	292	0.00	29.997 
16:00	88.2	88.2	87.9	39	60.1	1	4	248	0.00	29.997 
16:05	88.4	88.4	87.6	37	58.8	1	4	248	0.00	29.997 
16:10	88.4	88.4	87.4	36	58.0	1	3	248	0.00	29.997 
16:15	88.4	88.4	87.4	36	58.0	1	2	248	0.00	29.998 
16:20	88.4	88.4	87.2	35	57.2	1	3	270	0.00	29.998 
16:25	88.2	88.2	87.2	36	57.8	1	4	270	0.00	29.998 
16:30	88.2	88.2	87.2	36	57.8	1	3	248	0.00	29.999 
16:35	88.4	88.4	87.6	37	58.8	1	2	248	0.00	29.998 
16:40	88.2	88.2	87.4	37	58.6	1	3	270	0.00	29.999 
16:45	88.0	88.0	87.6	39	59.9	2	4	270	0.00	29.998 
16:50	88.0	88.0	87.6	39	59.9	1	3	270	0.00	29.998 
16:55	87.6	87.6	87.4	40	60.3	1	3	270	0.00	29.996 
17:00	87.6	87.6	87.1	39	59.5	1	3	270	0.00	29.996 
17:05	87.4	87.4	87.4	41	60.8	1	3	270	0.00	29.996 
17:10	87.0	87.0	87.1	42	61.1	1	4	270	0.00	29.996 
17:15	87.0	87.0	87.4	43	61.8	1	3	270	0.00	29.996 
17:20	87.0	87.0	87.4	43	61.8	0	2	270	0.00	29.996 
17:25	86.7	86.7	87.0	43	61.5	1	2	270	0.00	29.997 
17:30	86.7	86.7	86.5	41	60.1	2	3	270	0.00	29.997 
17:35	86.3	86.3	86.2	42	60.5	1	3	270	0.00	29.997 
17:40	85.9	85.9	85.7	42	60.1	2	5	248	0.00	29.999 
17:45	85.7	85.7	85.5	42	59.9	1	5	248	0.00	29.996 
17:50	85.7	85.7	85.7	43	60.6	1	3	112	0.00	29.995 
17:55	85.7	85.7	86.0	44	61.2	0	3	292	0.00	29.994 
18:00	85.5	85.5	85.7	44	61.1	1	9	248	0.00	29.995 
18:05	85.3	85.3	85.5	44	60.9	1	9	270	0.00	29.988 
18:10	85.3	85.3	85.2	43	60.2	2	4	270	0.00	29.988 
18:15	85.5	85.5	85.3	42	59.8	1	3	248	0.00	29.988 
18:20	85.3	85.3	85.2	43	60.2	0	2	248	0.00	29.990 
18:25	85.1	85.1	85.0	43	60.1	1	3	248	0.00	29.989 
18:30	85.1	85.1	85.2	44	60.7	1	3	270	0.00	29.987 
18:35	84.9	84.9	85.2	45	61.2	0	2	270	0.00	29.989 
18:40	84.7	84.7	85.2	46	61.6	1	4	315	0.00	29.991 
18:45	84.5	84.5	84.9	46	61.4	1	3	292	0.00	29.991 
18:50	84.3	84.3	84.7	46	61.2	0	2	248	0.00	29.994 
18:55	84.3	84.3	84.7	46	61.2	1	4	270	0.00	29.995 
19:00	84.1	84.1	84.6	47	61.7	1	3	248	0.00	29.994 
19:05	84.0	84.0	84.7	48	62.2	1	3	248	0.00	29.987 
19:10	83.8	83.8	84.5	48	62.0	1	3	270	0.00	29.987 
19:15	83.8	83.8	84.5	48	62.0	1	2	270	0.00	29.988 
19:20	83.6	83.6	84.2	48	61.8	0	1	270	0.00	29.988 
19:25	83.2	83.2	84.0	49	62.0	0	1	270	0.00	29.990 
19:30	83.0	83.0	83.9	50	62.4	0	0	---	0.00	29.990 
19:35	82.6	82.6	83.4	50	62.0	0	1	270	0.00	29.990 
19:40	82.2	82.2	83.1	51	62.2	0	1	270	0.00	29.991 
19:45	81.8	81.8	82.8	52	62.4	0	1	270	0.00	29.990 
19:50	81.4	81.4	82.5	53	62.6	0	1	270	0.00	29.991 
19:55	81.1	81.1	82.2	53	62.3	0	1	270	0.00	29.995 
20:00	80.9	80.9	82.1	54	62.7	0	1	270	0.00	30.001 
20:05	80.5	80.5	81.7	54	62.3	0	0	---	0.00	30.000 
20:10	80.1	80.1	81.4	55	62.4	0	0	---	0.00	30.002 
20:15	79.8	79.8	81.2	56	62.7	0	0	---	0.00	30.003 
20:20	79.4	79.4	80.8	56	62.3	0	0	---	0.00	30.003 
20:25	79.2	79.2	80.7	57	62.6	0	0	---	0.00	30.006 
20:30	78.8	78.8	80.3	58	62.8	0	0	---	0.00	30.008 
20:35	78.5	78.5	80.0	58	62.5	0	1	270	0.00	30.011 
20:40	78.3	78.3	79.9	59	62.8	0	0	---	0.00	30.015 
20:45	78.1	78.1	79.8	60	63.1	0	0	---	0.00	30.016 
20:50	77.7	77.7	79.4	61	63.2	0	0	---	0.00	30.018 
20:55	77.4	77.4	79.2	62	63.3	0	0	---	0.00	30.019 
21:00	77.2	77.2	79.0	63	63.6	0	0	---	0.00	30.021 
21:05	76.8	76.8	78.6	63	63.2	0	0	---	0.00	30.019 
21:10	76.7	76.7	78.5	64	63.6	0	0	---	0.00	30.020 
21:15	76.3	76.3	78.1	65	63.6	0	0	---	0.00	30.021 
21:20	76.1	76.1	78.0	65	63.5	0	0	---	0.00	30.024 
21:25	75.8	75.8	77.7	66	63.6	0	0	---	0.00	30.026 
21:30	75.4	75.4	77.3	67	63.7	0	0	---	0.00	30.028 
21:35	75.1	75.1	76.9	68	63.8	0	0	---	0.00	30.030 
21:40	74.9	74.9	74.9	69	64.0	0	0	---	0.00	30.032 
21:45	74.6	74.6	74.6	69	63.7	0	0	---	0.00	30.033 
21:50	74.2	74.2	74.2	71	64.2	0	0	---	0.00	30.034 
21:55	74.0	74.0	74.0	71	64.0	0	0	---	0.00	30.036 
22:00	73.7	73.7	73.7	72	64.1	0	0	---	0.00	30.035 
22:05	73.5	73.5	73.5	73	64.3	0	0	---	0.00	30.030 
22:10	73.2	73.2	73.2	73	64.0	0	0	---	0.00	30.031 
22:15	73.0	73.0	73.0	74	64.2	0	0	---	0.00	30.030 
22:20	73.0	73.0	73.0	75	64.6	0	0	---	0.00	30.029 
22:25	72.8	72.8	72.8	75	64.4	0	0	---	0.00	30.031 
22:30	72.8	72.8	72.8	76	64.8	0	0	---	0.00	30.031 
22:35	72.7	72.7	72.7	76	64.7	0	0	---	0.00	30.030 
22:40	72.5	72.5	72.5	77	64.9	0	0	---	0.00	30.028 
22:45	72.3	72.3	72.3	77	64.7	0	0	---	0.00	30.029 
22:50	72.3	72.3	72.3	77	64.7	0	0	---	0.00	30.030 
22:55	72.1	72.1	72.1	77	64.5	0	0	---	0.00	30.030 
23:00	72.1	72.1	72.1	77	64.5	0	0	---	0.00	30.030 
23:05	72.0	72.0	72.0	77	64.4	0	0	---	0.00	30.031 
23:10	72.0	72.0	72.0	77	64.4	0	0	---	0.00	30.031 
23:15	72.0	72.0	72.0	77	64.4	0	0	---	0.00	30.032 
23:20	72.1	72.1	72.1	76	64.1	0	1	270	0.00	30.032 
23:25	72.1	72.1	72.1	76	64.1	0	0	---	0.00	30.033 
23:30	72.3	72.3	72.3	75	63.9	0	1	270	0.00	30.034 
23:35	72.5	72.5	72.5	74	63.7	0	0	---	0.00	30.034 
23:40	72.5	72.5	72.5	74	63.7	0	1	270	0.00	30.034 
23:45	72.7	72.7	72.7	74	63.9	0	1	270	0.00	30.036 
23:50	72.7	72.7	72.7	74	63.9	0	1	270	0.00	30.034 
23:55	72.7	72.7	72.7	74	63.9	0	0	---	0.00	30.034 

CoCoRaHS
IN-AL-39
A2 Web Hosting
Creative Commons License
GoDaddy
Look for:

loaded 2017-12-12 07:04:47 • last modified 2010-11-18 10:43:29
Privacy PolicyDisclaimer
• wx.awcolley.com is powered by PmWiki v.2002016 •
• all content (unless otherwise noted) © 2017 A W Colley